sensor_id;sensor_type;location;lat;lon;timestamp;temperature;humidity
20162;DHT22;51382;53.180;15.414;2023-06-22T00:02:51;17.90;99.90
20162;DHT22;51382;53.180;15.414;2023-06-22T00:18:02;17.60;99.90
20162;DHT22;51382;53.180;15.414;2023-06-22T00:33:14;17.20;99.90
20162;DHT22;51382;53.180;15.414;2023-06-22T00:48:25;17.20;99.90
20162;DHT22;51382;53.180;15.414;2023-06-22T01:03:36;17.30;99.90
20162;DHT22;51382;53.180;15.414;2023-06-22T01:18:48;17.10;99.90
20162;DHT22;51382;53.180;15.414;2023-06-22T01:34:04;16.70;99.90
20162;DHT22;51382;53.180;15.414;2023-06-22T01:49:17;16.40;99.90
20162;DHT22;51382;53.180;15.414;2023-06-22T02:04:32;16.30;99.90
20162;DHT22;51382;53.180;15.414;2023-06-22T02:19:48;15.80;99.90
20162;DHT22;51382;53.180;15.414;2023-06-22T02:34:59;15.90;99.90
20162;DHT22;51382;53.180;15.414;2023-06-22T02:50:12;15.80;99.90
20162;DHT22;51382;53.180;15.414;2023-06-22T03:05:23;15.80;99.90
20162;DHT22;51382;53.180;15.414;2023-06-22T03:20:35;15.00;99.90
20162;DHT22;51382;53.180;15.414;2023-06-22T03:35:47;15.10;99.90
20162;DHT22;51382;53.180;15.414;2023-06-22T03:50:59;15.40;99.90
20162;DHT22;51382;53.180;15.414;2023-06-22T04:06:11;16.50;99.90
20162;DHT22;51382;53.180;15.414;2023-06-22T04:21:25;17.40;99.90
20162;DHT22;51382;53.180;15.414;2023-06-22T04:36:36;18.40;99.90
20162;DHT22;51382;53.180;15.414;2023-06-22T04:51:49;26.40;92.20
20162;DHT22;51382;53.180;15.414;2023-06-22T05:07:03;30.10;75.50
20162;DHT22;51382;53.180;15.414;2023-06-22T05:22:15;30.80;71.50
20162;DHT22;51382;53.180;15.414;2023-06-22T05:37:26;32.30;65.70
20162;DHT22;51382;53.180;15.414;2023-06-22T05:52:38;32.10;64.70
20162;DHT22;51382;53.180;15.414;2023-06-22T06:07:49;32.50;62.90
20162;DHT22;51382;53.180;15.414;2023-06-22T06:23:01;31.60;61.70
20162;DHT22;51382;53.180;15.414;2023-06-22T06:38:12;32.30;60.20
20162;DHT22;51382;53.180;15.414;2023-06-22T06:53:24;33.20;57.70
20162;DHT22;51382;53.180;15.414;2023-06-22T07:08:36;27.80;67.60
20162;DHT22;51382;53.180;15.414;2023-06-22T07:23:43;28.00;66.50
20162;DHT22;51382;53.180;15.414;2023-06-22T07:38:54;34.20;48.00
20162;DHT22;51382;53.180;15.414;2023-06-22T07:54:05;38.60;42.80
20162;DHT22;51382;53.180;15.414;2023-06-22T08:09:18;39.30;41.40
20162;DHT22;51382;53.180;15.414;2023-06-22T08:24:29;38.40;38.20
20162;DHT22;51382;53.180;15.414;2023-06-22T08:39:41;37.60;39.60
20162;DHT22;51382;53.180;15.414;2023-06-22T08:54:52;29.00;52.40
20162;DHT22;51382;53.180;15.414;2023-06-22T09:10:04;27.40;58.10
20162;DHT22;51382;53.180;15.414;2023-06-22T09:25:17;26.60;61.30
20162;DHT22;51382;53.180;15.414;2023-06-22T09:40:29;27.30;60.30
20162;DHT22;51382;53.180;15.414;2023-06-22T09:55:43;27.50;55.00
20162;DHT22;51382;53.180;15.414;2023-06-22T10:10:55;27.00;55.00
20162;DHT22;51382;53.180;15.414;2023-06-22T10:26:06;27.00;57.80
20162;DHT22;51382;53.180;15.414;2023-06-22T10:41:17;26.90;56.40
20162;DHT22;51382;53.180;15.414;2023-06-22T10:56:29;27.50;58.50
20162;DHT22;51382;53.180;15.414;2023-06-22T11:11:41;27.90;57.10
20162;DHT22;51382;53.180;15.414;2023-06-22T11:26:53;27.40;56.20
20162;DHT22;51382;53.180;15.414;2023-06-22T11:42:04;27.60;55.30
20162;DHT22;51382;53.180;15.414;2023-06-22T11:57:17;27.00;56.00
20162;DHT22;51382;53.180;15.414;2023-06-22T12:12:29;27.20;57.50
20162;DHT22;51382;53.180;15.414;2023-06-22T12:27:40;27.90;55.30
20162;DHT22;51382;53.180;15.414;2023-06-22T12:42:46;27.90;55.40
20162;DHT22;51382;53.180;15.414;2023-06-22T12:57:57;27.80;56.90
20162;DHT22;51382;53.180;15.414;2023-06-22T13:13:09;27.70;54.10
20162;DHT22;51382;53.180;15.414;2023-06-22T13:28:20;27.60;54.80
20162;DHT22;51382;53.180;15.414;2023-06-22T13:43:31;27.40;54.10
20162;DHT22;51382;53.180;15.414;2023-06-22T13:58:43;27.50;50.20
20162;DHT22;51382;53.180;15.414;2023-06-22T14:13:54;27.30;48.70
20162;DHT22;51382;53.180;15.414;2023-06-22T14:29:05;27.20;48.80
20162;DHT22;51382;53.180;15.414;2023-06-22T14:44:16;27.20;49.90
20162;DHT22;51382;53.180;15.414;2023-06-22T14:59:28;27.40;48.20
20162;DHT22;51382;53.180;15.414;2023-06-22T15:14:39;27.60;48.60
20162;DHT22;51382;53.180;15.414;2023-06-22T15:29:51;27.30;49.70
20162;DHT22;51382;53.180;15.414;2023-06-22T15:45:02;27.10;47.80
20162;DHT22;51382;53.180;15.414;2023-06-22T16:00:16;26.80;49.90
20162;DHT22;51382;53.180;15.414;2023-06-22T16:15:27;27.10;50.40
20162;DHT22;51382;53.180;15.414;2023-06-22T16:30:39;26.90;51.70
20162;DHT22;51382;53.180;15.414;2023-06-22T16:45:51;26.90;48.50
20162;DHT22;51382;53.180;15.414;2023-06-22T17:01:05;26.90;50.80
20162;DHT22;51382;53.180;15.414;2023-06-22T17:16:18;26.50;51.80
20162;DHT22;51382;53.180;15.414;2023-06-22T17:31:38;26.10;54.20
20162;DHT22;51382;53.180;15.414;2023-06-22T17:46:52;26.10;53.70
20162;DHT22;51382;53.180;15.414;2023-06-22T18:02:07;25.90;53.80
20162;DHT22;51382;53.180;15.414;2023-06-22T18:17:21;25.30;55.30
20162;DHT22;51382;53.180;15.414;2023-06-22T18:32:33;24.70;56.60
20162;DHT22;51382;53.180;15.414;2023-06-22T18:47:44;23.70;59.00
20162;DHT22;51382;53.180;15.414;2023-06-22T19:03:10;23.50;59.80
20162;DHT22;51382;53.180;15.414;2023-06-22T19:18:38;23.10;60.20
20162;DHT22;51382;53.180;15.414;2023-06-22T19:33:52;22.70;61.60
20162;DHT22;51382;53.180;15.414;2023-06-22T19:49:09;22.40;63.40
20162;DHT22;51382;53.180;15.414;2023-06-22T20:04:21;22.00;64.40
20162;DHT22;51382;53.180;15.414;2023-06-22T20:19:37;21.60;66.50
20162;DHT22;51382;53.180;15.414;2023-06-22T20:34:49;21.20;68.60
20162;DHT22;51382;53.180;15.414;2023-06-22T20:50:02;20.80;71.10
20162;DHT22;51382;53.180;15.414;2023-06-22T21:05:14;20.50;74.50
20162;DHT22;51382;53.180;15.414;2023-06-22T21:20:25;20.40;75.60
20162;DHT22;51382;53.180;15.414;2023-06-22T21:35:36;20.60;75.30
20162;DHT22;51382;53.180;15.414;2023-06-22T21:50:47;20.60;75.60
20162;DHT22;51382;53.180;15.414;2023-06-22T22:05:59;20.50;76.10
20162;DHT22;51382;53.180;15.414;2023-06-22T22:21:11;20.50;76.20
20162;DHT22;51382;53.180;15.414;2023-06-22T22:36:25;20.20;78.00
20162;DHT22;51382;53.180;15.414;2023-06-22T22:51:38;20.10;78.70
20162;DHT22;51382;53.180;15.414;2023-06-22T23:06:49;20.10;78.80
20162;DHT22;51382;53.180;15.414;2023-06-22T23:22:02;19.90;79.30
